sensor_id;sensor_type;location;lat;lon;timestamp;P1;durP1;ratioP1;P2;durP2;ratioP2
58412;SDS011;44209;52.952;6.790;2023-03-14T00:00:22;22.20;;;5.87;;
58412;SDS011;44209;52.952;6.790;2023-03-14T00:02:52;26.50;;;6.80;;
58412;SDS011;44209;52.952;6.790;2023-03-14T00:05:18;21.57;;;5.20;;
58412;SDS011;44209;52.952;6.790;2023-03-14T00:07:44;18.33;;;5.73;;
58412;SDS011;44209;52.952;6.790;2023-03-14T00:10:11;26.90;;;6.03;;
58412;SDS011;44209;52.952;6.790;2023-03-14T00:12:39;22.40;;;5.50;;
58412;SDS011;44209;52.952;6.790;2023-03-14T00:15:05;27.63;;;6.33;;
58412;SDS011;44209;52.952;6.790;2023-03-14T00:17:32;24.73;;;5.73;;
58412;SDS011;44209;52.952;6.790;2023-03-14T00:19:59;19.83;;;5.20;;
58412;SDS011;44209;52.952;6.790;2023-03-14T00:22:35;22.93;;;5.03;;
58412;SDS011;44209;52.952;6.790;2023-03-14T00:25:01;21.77;;;5.40;;
58412;SDS011;44209;52.952;6.790;2023-03-14T00:27:28;22.90;;;5.17;;
58412;SDS011;44209;52.952;6.790;2023-03-14T00:29:54;22.63;;;5.30;;
58412;SDS011;44209;52.952;6.790;2023-03-14T00:32:19;20.03;;;5.90;;
58412;SDS011;44209;52.952;6.790;2023-03-14T00:34:45;19.27;;;5.30;;
58412;SDS011;44209;52.952;6.790;2023-03-14T00:37:11;18.50;;;5.23;;
58412;SDS011;44209;52.952;6.790;2023-03-14T00:39:39;22.10;;;5.50;;
58412;SDS011;44209;52.952;6.790;2023-03-14T00:42:04;21.53;;;5.27;;
58412;SDS011;44209;52.952;6.790;2023-03-14T00:44:30;18.63;;;5.37;;
58412;SDS011;44209;52.952;6.790;2023-03-14T00:46:57;20.37;;;5.00;;
58412;SDS011;44209;52.952;6.790;2023-03-14T00:49:22;20.60;;;5.53;;
58412;SDS011;44209;52.952;6.790;2023-03-14T00:51:48;17.20;;;5.30;;
58412;SDS011;44209;52.952;6.790;2023-03-14T00:54:14;21.50;;;5.27;;
58412;SDS011;44209;52.952;6.790;2023-03-14T00:56:40;15.77;;;5.13;;
58412;SDS011;44209;52.952;6.790;2023-03-14T00:59:06;23.73;;;5.40;;
58412;SDS011;44209;52.952;6.790;2023-03-14T01:01:31;22.40;;;6.07;;
58412;SDS011;44209;52.952;6.790;2023-03-14T01:03:57;17.90;;;5.43;;
58412;SDS011;44209;52.952;6.790;2023-03-14T01:06:26;18.70;;;5.50;;
58412;SDS011;44209;52.952;6.790;2023-03-14T01:08:55;19.85;;;5.85;;
58412;SDS011;44209;52.952;6.790;2023-03-14T01:11:23;17.53;;;6.10;;
58412;SDS011;44209;52.952;6.790;2023-03-14T01:13:50;17.03;;;6.03;;
58412;SDS011;44209;52.952;6.790;2023-03-14T01:16:17;20.20;;;6.30;;
58412;SDS011;44209;52.952;6.790;2023-03-14T01:18:45;14.10;;;6.07;;
58412;SDS011;44209;52.952;6.790;2023-03-14T01:21:21;16.37;;;6.23;;
58412;SDS011;44209;52.952;6.790;2023-03-14T01:23:52;20.63;;;7.00;;
58412;SDS011;44209;52.952;6.790;2023-03-14T01:26:20;17.30;;;6.27;;
58412;SDS011;44209;52.952;6.790;2023-03-14T01:28:47;21.23;;;6.27;;
58412;SDS011;44209;52.952;6.790;2023-03-14T01:31:14;20.57;;;6.73;;
58412;SDS011;44209;52.952;6.790;2023-03-14T01:33:40;16.47;;;6.00;;
58412;SDS011;44209;52.952;6.790;2023-03-14T01:36:06;17.33;;;6.20;;
58412;SDS011;44209;52.952;6.790;2023-03-14T01:38:33;16.40;;;5.93;;
58412;SDS011;44209;52.952;6.790;2023-03-14T01:41:00;18.00;;;5.83;;
58412;SDS011;44209;52.952;6.790;2023-03-14T01:43:27;17.30;;;6.00;;
58412;SDS011;44209;52.952;6.790;2023-03-14T01:48:32;13.33;;;5.83;;
58412;SDS011;44209;52.952;6.790;2023-03-14T01:51:04;12.93;;;5.30;;
58412;SDS011;44209;52.952;6.790;2023-03-14T01:53:36;13.40;;;4.90;;
58412;SDS011;44209;52.952;6.790;2023-03-14T01:56:03;16.63;;;5.23;;
58412;SDS011;44209;52.952;6.790;2023-03-14T01:58:30;17.23;;;5.87;;
58412;SDS011;44209;52.952;6.790;2023-03-14T02:00:59;16.77;;;4.90;;
58412;SDS011;44209;52.952;6.790;2023-03-14T02:03:27;13.67;;;4.30;;
58412;SDS011;44209;52.952;6.790;2023-03-14T02:05:56;12.63;;;4.67;;
58412;SDS011;44209;52.952;6.790;2023-03-14T02:08:29;15.83;;;5.17;;
58412;SDS011;44209;52.952;6.790;2023-03-14T02:10:56;20.03;;;5.03;;
58412;SDS011;44209;52.952;6.790;2023-03-14T02:13:22;14.37;;;4.30;;
58412;SDS011;44209;52.952;6.790;2023-03-14T02:15:48;15.00;;;4.17;;
58412;SDS011;44209;52.952;6.790;2023-03-14T02:18:14;12.33;;;4.53;;
58412;SDS011;44209;52.952;6.790;2023-03-14T02:23:15;16.53;;;4.83;;
58412;SDS011;44209;52.952;6.790;2023-03-14T02:25:51;16.05;;;5.00;;
58412;SDS011;44209;52.952;6.790;2023-03-14T02:28:28;12.57;;;4.10;;
58412;SDS011;44209;52.952;6.790;2023-03-14T02:30:54;12.77;;;4.13;;
58412;SDS011;44209;52.952;6.790;2023-03-14T02:33:20;14.57;;;4.83;;
58412;SDS011;44209;52.952;6.790;2023-03-14T02:35:55;14.50;;;4.70;;
58412;SDS011;44209;52.952;6.790;2023-03-14T02:38:37;18.47;;;5.03;;
58412;SDS011;44209;52.952;6.790;2023-03-14T02:41:07;14.03;;;4.37;;
58412;SDS011;44209;52.952;6.790;2023-03-14T02:43:33;18.40;;;5.57;;
58412;SDS011;44209;52.952;6.790;2023-03-14T02:45:58;21.50;;;6.23;;
58412;SDS011;44209;52.952;6.790;2023-03-14T02:48:48;14.77;;;5.80;;
58412;SDS011;44209;52.952;6.790;2023-03-14T02:51:17;15.50;;;4.83;;
58412;SDS011;44209;52.952;6.790;2023-03-14T02:53:43;18.90;;;5.80;;
58412;SDS011;44209;52.952;6.790;2023-03-14T02:56:09;18.80;;;5.53;;
58412;SDS011;44209;52.952;6.790;2023-03-14T02:58:36;17.17;;;6.00;;
58412;SDS011;44209;52.952;6.790;2023-03-14T03:01:02;13.10;;;5.77;;
58412;SDS011;44209;52.952;6.790;2023-03-14T03:03:28;16.70;;;5.07;;
58412;SDS011;44209;52.952;6.790;2023-03-14T03:05:54;14.03;;;5.40;;
58412;SDS011;44209;52.952;6.790;2023-03-14T03:08:22;13.20;;;5.30;;
58412;SDS011;44209;52.952;6.790;2023-03-14T03:10:48;12.50;;;5.33;;
58412;SDS011;44209;52.952;6.790;2023-03-14T03:13:15;13.30;;;5.20;;
58412;SDS011;44209;52.952;6.790;2023-03-14T03:15:41;12.60;;;4.50;;
58412;SDS011;44209;52.952;6.790;2023-03-14T03:18:07;11.70;;;4.87;;
58412;SDS011;44209;52.952;6.790;2023-03-14T03:20:33;10.53;;;4.43;;
58412;SDS011;44209;52.952;6.790;2023-03-14T03:22:59;9.80;;;4.33;;
58412;SDS011;44209;52.952;6.790;2023-03-14T03:25:25;9.70;;;4.30;;
58412;SDS011;44209;52.952;6.790;2023-03-14T03:27:51;8.90;;;4.23;;
58412;SDS011;44209;52.952;6.790;2023-03-14T03:30:17;12.47;;;3.80;;
58412;SDS011;44209;52.952;6.790;2023-03-14T03:32:43;9.97;;;4.07;;
58412;SDS011;44209;52.952;6.790;2023-03-14T03:35:09;8.97;;;3.60;;
58412;SDS011;44209;52.952;6.790;2023-03-14T03:37:35;10.30;;;4.10;;
58412;SDS011;44209;52.952;6.790;2023-03-14T03:40:02;12.20;;;4.43;;
58412;SDS011;44209;52.952;6.790;2023-03-14T03:42:32;10.10;;;3.60;;
58412;SDS011;44209;52.952;6.790;2023-03-14T03:44:59;13.07;;;5.17;;
58412;SDS011;44209;52.952;6.790;2023-03-14T03:47:25;13.13;;;4.70;;
58412;SDS011;44209;52.952;6.790;2023-03-14T03:49:51;15.87;;;4.83;;
58412;SDS011;44209;52.952;6.790;2023-03-14T03:52:17;15.37;;;5.30;;
58412;SDS011;44209;52.952;6.790;2023-03-14T03:54:43;12.40;;;5.07;;
58412;SDS011;44209;52.952;6.790;2023-03-14T03:57:09;12.67;;;5.27;;
58412;SDS011;44209;52.952;6.790;2023-03-14T03:59:34;14.17;;;4.80;;
58412;SDS011;44209;52.952;6.790;2023-03-14T04:02:00;12.27;;;5.00;;
58412;SDS011;44209;52.952;6.790;2023-03-14T04:04:26;15.60;;;5.50;;
58412;SDS011;44209;52.952;6.790;2023-03-14T04:06:52;12.83;;;5.47;;
58412;SDS011;44209;52.952;6.790;2023-03-14T04:09:17;14.13;;;5.87;;
58412;SDS011;44209;52.952;6.790;2023-03-14T04:11:43;12.17;;;5.00;;
58412;SDS011;44209;52.952;6.790;2023-03-14T04:14:09;13.30;;;5.43;;
58412;SDS011;44209;52.952;6.790;2023-03-14T04:16:35;12.30;;;5.47;;
58412;SDS011;44209;52.952;6.790;2023-03-14T04:19:01;12.93;;;5.63;;
58412;SDS011;44209;52.952;6.790;2023-03-14T04:21:27;13.67;;;5.60;;
58412;SDS011;44209;52.952;6.790;2023-03-14T04:23:53;13.77;;;5.47;;
58412;SDS011;44209;52.952;6.790;2023-03-14T04:26:19;12.30;;;5.70;;
58412;SDS011;44209;52.952;6.790;2023-03-14T04:28:45;13.37;;;5.23;;
58412;SDS011;44209;52.952;6.790;2023-03-14T04:31:18;10.60;;;4.90;;
58412;SDS011;44209;52.952;6.790;2023-03-14T04:33:45;11.40;;;4.70;;
58412;SDS011;44209;52.952;6.790;2023-03-14T04:36:11;12.73;;;4.60;;
58412;SDS011;44209;52.952;6.790;2023-03-14T04:38:37;11.57;;;4.43;;
58412;SDS011;44209;52.952;6.790;2023-03-14T04:41:03;11.53;;;4.70;;
58412;SDS011;44209;52.952;6.790;2023-03-14T04:43:29;12.37;;;4.70;;
58412;SDS011;44209;52.952;6.790;2023-03-14T04:45:55;11.93;;;4.63;;
58412;SDS011;44209;52.952;6.790;2023-03-14T04:48:22;9.57;;;4.60;;
58412;SDS011;44209;52.952;6.790;2023-03-14T04:50:49;11.87;;;3.90;;
58412;SDS011;44209;52.952;6.790;2023-03-14T04:53:15;13.00;;;4.30;;
58412;SDS011;44209;52.952;6.790;2023-03-14T04:55:41;7.37;;;4.57;;
58412;SDS011;44209;52.952;6.790;2023-03-14T04:58:07;11.23;;;4.83;;
58412;SDS011;44209;52.952;6.790;2023-03-14T05:00:33;11.07;;;4.77;;
58412;SDS011;44209;52.952;6.790;2023-03-14T05:02:59;9.30;;;4.80;;
58412;SDS011;44209;52.952;6.790;2023-03-14T05:05:24;12.07;;;5.60;;
58412;SDS011;44209;52.952;6.790;2023-03-14T05:07:50;9.40;;;5.37;;
58412;SDS011;44209;52.952;6.790;2023-03-14T05:10:16;12.30;;;5.40;;
58412;SDS011;44209;52.952;6.790;2023-03-14T05:12:42;13.00;;;5.60;;
58412;SDS011;44209;52.952;6.790;2023-03-14T05:15:08;13.93;;;5.40;;
58412;SDS011;44209;52.952;6.790;2023-03-14T05:17:34;15.53;;;6.60;;
58412;SDS011;44209;52.952;6.790;2023-03-14T05:20:00;14.27;;;5.93;;
58412;SDS011;44209;52.952;6.790;2023-03-14T05:22:26;13.17;;;6.30;;
58412;SDS011;44209;52.952;6.790;2023-03-14T05:24:52;15.40;;;6.30;;
58412;SDS011;44209;52.952;6.790;2023-03-14T05:27:21;13.03;;;6.03;;
58412;SDS011;44209;52.952;6.790;2023-03-14T05:29:47;12.20;;;6.23;;
58412;SDS011;44209;52.952;6.790;2023-03-14T05:32:13;14.23;;;6.30;;
58412;SDS011;44209;52.952;6.790;2023-03-14T05:34:39;11.30;;;6.20;;
58412;SDS011;44209;52.952;6.790;2023-03-14T05:37:04;12.10;;;6.03;;
58412;SDS011;44209;52.952;6.790;2023-03-14T05:39:30;11.40;;;6.07;;
58412;SDS011;44209;52.952;6.790;2023-03-14T05:41:56;11.97;;;6.10;;
58412;SDS011;44209;52.952;6.790;2023-03-14T05:44:22;12.60;;;5.87;;
58412;SDS011;44209;52.952;6.790;2023-03-14T05:46:47;11.07;;;5.90;;
58412;SDS011;44209;52.952;6.790;2023-03-14T05:49:13;14.00;;;6.47;;
58412;SDS011;44209;52.952;6.790;2023-03-14T05:51:39;12.63;;;6.53;;
58412;SDS011;44209;52.952;6.790;2023-03-14T05:54:05;12.53;;;6.07;;
58412;SDS011;44209;52.952;6.790;2023-03-14T05:56:30;16.07;;;6.10;;
58412;SDS011;44209;52.952;6.790;2023-03-14T05:58:56;16.33;;;6.50;;
58412;SDS011;44209;52.952;6.790;2023-03-14T06:01:22;12.43;;;6.43;;
58412;SDS011;44209;52.952;6.790;2023-03-14T06:03:48;14.37;;;6.00;;
58412;SDS011;44209;52.952;6.790;2023-03-14T06:06:13;11.70;;;6.03;;
58412;SDS011;44209;52.952;6.790;2023-03-14T06:08:39;15.60;;;5.77;;
58412;SDS011;44209;52.952;6.790;2023-03-14T06:11:05;14.73;;;5.63;;
58412;SDS011;44209;52.952;6.790;2023-03-14T06:13:31;13.33;;;5.67;;
58412;SDS011;44209;52.952;6.790;2023-03-14T06:15:56;13.27;;;5.80;;
58412;SDS011;44209;52.952;6.790;2023-03-14T06:18:22;13.00;;;5.90;;
58412;SDS011;44209;52.952;6.790;2023-03-14T06:20:48;17.23;;;6.33;;
58412;SDS011;44209;52.952;6.790;2023-03-14T06:23:13;15.07;;;6.00;;
58412;SDS011;44209;52.952;6.790;2023-03-14T06:25:39;12.50;;;5.50;;
58412;SDS011;44209;52.952;6.790;2023-03-14T06:28:05;11.00;;;5.50;;
58412;SDS011;44209;52.952;6.790;2023-03-14T06:30:30;11.30;;;5.93;;
58412;SDS011;44209;52.952;6.790;2023-03-14T06:32:56;11.17;;;4.87;;
58412;SDS011;44209;52.952;6.790;2023-03-14T06:35:22;7.80;;;4.90;;
58412;SDS011;44209;52.952;6.790;2023-03-14T06:37:48;8.70;;;4.47;;
58412;SDS011;44209;52.952;6.790;2023-03-14T06:40:13;7.93;;;4.10;;
58412;SDS011;44209;52.952;6.790;2023-03-14T06:42:45;11.20;;;4.20;;
58412;SDS011;44209;52.952;6.790;2023-03-14T06:45:11;8.07;;;4.10;;
58412;SDS011;44209;52.952;6.790;2023-03-14T06:47:37;7.53;;;4.90;;
58412;SDS011;44209;52.952;6.790;2023-03-14T06:50:05;7.73;;;4.10;;
58412;SDS011;44209;52.952;6.790;2023-03-14T06:52:32;9.03;;;4.60;;
58412;SDS011;44209;52.952;6.790;2023-03-14T06:54:58;10.70;;;4.70;;
58412;SDS011;44209;52.952;6.790;2023-03-14T06:57:24;10.97;;;4.90;;
58412;SDS011;44209;52.952;6.790;2023-03-14T06:59:49;9.77;;;5.00;;
58412;SDS011;44209;52.952;6.790;2023-03-14T07:02:15;12.30;;;4.77;;
58412;SDS011;44209;52.952;6.790;2023-03-14T07:04:41;10.67;;;4.57;;
58412;SDS011;44209;52.952;6.790;2023-03-14T07:07:07;13.87;;;4.50;;
58412;SDS011;44209;52.952;6.790;2023-03-14T07:09:33;12.93;;;4.83;;
58412;SDS011;44209;52.952;6.790;2023-03-14T07:11:59;15.40;;;4.87;;
58412;SDS011;44209;52.952;6.790;2023-03-14T07:14:25;11.47;;;4.67;;
58412;SDS011;44209;52.952;6.790;2023-03-14T07:16:51;11.03;;;4.97;;
58412;SDS011;44209;52.952;6.790;2023-03-14T07:19:17;11.97;;;4.70;;
58412;SDS011;44209;52.952;6.790;2023-03-14T07:21:43;10.87;;;4.37;;
58412;SDS011;44209;52.952;6.790;2023-03-14T07:24:09;9.17;;;4.40;;
58412;SDS011;44209;52.952;6.790;2023-03-14T07:26:34;3.43;;;1.53;;
58412;SDS011;44209;52.952;6.790;2023-03-14T07:29:00;4.13;;;1.30;;
58412;SDS011;44209;52.952;6.790;2023-03-14T07:31:28;4.73;;;1.23;;
58412;SDS011;44209;52.952;6.790;2023-03-14T07:33:54;7.73;;;1.17;;
58412;SDS011;44209;52.952;6.790;2023-03-14T07:36:20;2.87;;;1.07;;
58412;SDS011;44209;52.952;6.790;2023-03-14T07:38:46;5.53;;;1.20;;
58412;SDS011;44209;52.952;6.790;2023-03-14T07:41:12;6.50;;;1.47;;
58412;SDS011;44209;52.952;6.790;2023-03-14T07:43:38;4.27;;;1.10;;
58412;SDS011;44209;52.952;6.790;2023-03-14T07:46:04;4.10;;;1.37;;
58412;SDS011;44209;52.952;6.790;2023-03-14T07:48:30;5.80;;;1.10;;
58412;SDS011;44209;52.952;6.790;2023-03-14T07:50:56;4.27;;;1.10;;
58412;SDS011;44209;52.952;6.790;2023-03-14T07:53:22;4.50;;;1.20;;
58412;SDS011;44209;52.952;6.790;2023-03-14T07:55:48;7.73;;;1.17;;
58412;SDS011;44209;52.952;6.790;2023-03-14T07:58:19;4.50;;;1.07;;
58412;SDS011;44209;52.952;6.790;2023-03-14T08:00:47;3.53;;;1.00;;
58412;SDS011;44209;52.952;6.790;2023-03-14T08:03:13;3.83;;;0.70;;
58412;SDS011;44209;52.952;6.790;2023-03-14T08:05:39;3.10;;;0.60;;
58412;SDS011;44209;52.952;6.790;2023-03-14T08:08:06;5.67;;;1.03;;
58412;SDS011;44209;52.952;6.790;2023-03-14T08:10:31;4.67;;;0.80;;
58412;SDS011;44209;52.952;6.790;2023-03-14T08:12:58;3.60;;;0.90;;
58412;SDS011;44209;52.952;6.790;2023-03-14T08:15:25;2.87;;;0.60;;
58412;SDS011;44209;52.952;6.790;2023-03-14T08:17:51;2.17;;;0.70;;
58412;SDS011;44209;52.952;6.790;2023-03-14T08:20:18;1.50;;;0.50;;
58412;SDS011;44209;52.952;6.790;2023-03-14T08:22:46;2.63;;;1.03;;
58412;SDS011;44209;52.952;6.790;2023-03-14T08:25:12;2.43;;;0.77;;
58412;SDS011;44209;52.952;6.790;2023-03-14T08:27:38;1.60;;;0.80;;
58412;SDS011;44209;52.952;6.790;2023-03-14T08:30:10;2.80;;;0.60;;
58412;SDS011;44209;52.952;6.790;2023-03-14T08:32:38;3.10;;;0.60;;
58412;SDS011;44209;52.952;6.790;2023-03-14T08:35:04;4.63;;;0.80;;
58412;SDS011;44209;52.952;6.790;2023-03-14T08:37:31;1.63;;;0.63;;
58412;SDS011;44209;52.952;6.790;2023-03-14T08:39:57;4.03;;;0.67;;
58412;SDS011;44209;52.952;6.790;2023-03-14T08:42:23;2.73;;;0.60;;
58412;SDS011;44209;52.952;6.790;2023-03-14T08:44:49;4.10;;;0.60;;
58412;SDS011;44209;52.952;6.790;2023-03-14T08:47:16;0.63;;;0.40;;
58412;SDS011;44209;52.952;6.790;2023-03-14T08:49:42;0.87;;;0.50;;
58412;SDS011;44209;52.952;6.790;2023-03-14T08:52:08;4.90;;;0.70;;
58412;SDS011;44209;52.952;6.790;2023-03-14T08:54:34;4.50;;;0.70;;
58412;SDS011;44209;52.952;6.790;2023-03-14T08:57:00;4.00;;;0.80;;
58412;SDS011;44209;52.952;6.790;2023-03-14T08:59:26;4.50;;;1.00;;
58412;SDS011;44209;52.952;6.790;2023-03-14T09:01:52;2.40;;;0.60;;
58412;SDS011;44209;52.952;6.790;2023-03-14T09:04:19;5.47;;;0.90;;
58412;SDS011;44209;52.952;6.790;2023-03-14T09:06:44;2.33;;;1.00;;
58412;SDS011;44209;52.952;6.790;2023-03-14T09:09:10;5.37;;;0.97;;
58412;SDS011;44209;52.952;6.790;2023-03-14T09:11:36;4.70;;;1.00;;
58412;SDS011;44209;52.952;6.790;2023-03-14T09:14:02;5.70;;;1.60;;
58412;SDS011;44209;52.952;6.790;2023-03-14T09:16:27;4.10;;;1.37;;
58412;SDS011;44209;52.952;6.790;2023-03-14T09:18:53;5.23;;;1.50;;
58412;SDS011;44209;52.952;6.790;2023-03-14T09:21:20;5.50;;;1.27;;
58412;SDS011;44209;52.952;6.790;2023-03-14T09:23:46;9.00;;;1.67;;
58412;SDS011;44209;52.952;6.790;2023-03-14T09:26:12;7.67;;;1.60;;
58412;SDS011;44209;52.952;6.790;2023-03-14T09:28:38;7.23;;;1.83;;
58412;SDS011;44209;52.952;6.790;2023-03-14T09:31:07;7.03;;;1.93;;
58412;SDS011;44209;52.952;6.790;2023-03-14T09:33:34;11.33;;;2.23;;
58412;SDS011;44209;52.952;6.790;2023-03-14T09:36:00;7.73;;;2.03;;
58412;SDS011;44209;52.952;6.790;2023-03-14T09:38:27;9.00;;;2.10;;
58412;SDS011;44209;52.952;6.790;2023-03-14T09:40:53;11.80;;;2.30;;
58412;SDS011;44209;52.952;6.790;2023-03-14T09:43:20;5.43;;;2.17;;
58412;SDS011;44209;52.952;6.790;2023-03-14T09:45:47;14.87;;;2.70;;
58412;SDS011;44209;52.952;6.790;2023-03-14T09:48:15;8.47;;;2.40;;
58412;SDS011;44209;52.952;6.790;2023-03-14T09:50:47;13.27;;;2.87;;
58412;SDS011;44209;52.952;6.790;2023-03-14T09:53:19;15.47;;;2.93;;
58412;SDS011;44209;52.952;6.790;2023-03-14T09:55:49;12.17;;;2.53;;
58412;SDS011;44209;52.952;6.790;2023-03-14T09:58:16;12.50;;;3.03;;
58412;SDS011;44209;52.952;6.790;2023-03-14T10:00:45;19.30;;;3.40;;
58412;SDS011;44209;52.952;6.790;2023-03-14T10:05:36;13.93;;;2.93;;
58412;SDS011;44209;52.952;6.790;2023-03-14T10:08:03;12.40;;;3.37;;
58412;SDS011;44209;52.952;6.790;2023-03-14T10:10:30;15.23;;;3.80;;
58412;SDS011;44209;52.952;6.790;2023-03-14T10:15:33;17.30;;;3.53;;
58412;SDS011;44209;52.952;6.790;2023-03-14T10:18:00;15.73;;;3.67;;
58412;SDS011;44209;52.952;6.790;2023-03-14T10:23:01;23.13;;;4.10;;
58412;SDS011;44209;52.952;6.790;2023-03-14T10:25:37;13.07;;;3.40;;
58412;SDS011;44209;52.952;6.790;2023-03-14T10:28:33;16.47;;;3.57;;
58412;SDS011;44209;52.952;6.790;2023-03-14T10:30:58;12.83;;;2.80;;
58412;SDS011;44209;52.952;6.790;2023-03-14T10:33:32;17.50;;;2.93;;
58412;SDS011;44209;52.952;6.790;2023-03-14T10:36:19;13.53;;;3.20;;
58412;SDS011;44209;52.952;6.790;2023-03-14T10:38:48;16.10;;;3.13;;
58412;SDS011;44209;52.952;6.790;2023-03-14T10:41:19;17.10;;;3.10;;
58412;SDS011;44209;52.952;6.790;2023-03-14T10:43:59;19.50;;;3.63;;
58412;SDS011;44209;52.952;6.790;2023-03-14T10:46:26;16.80;;;3.83;;
58412;SDS011;44209;52.952;6.790;2023-03-14T10:48:56;15.20;;;3.70;;
58412;SDS011;44209;52.952;6.790;2023-03-14T10:51:28;16.70;;;3.27;;
58412;SDS011;44209;52.952;6.790;2023-03-14T10:53:59;16.97;;;3.40;;
58412;SDS011;44209;52.952;6.790;2023-03-14T10:56:37;17.07;;;3.73;;
58412;SDS011;44209;52.952;6.790;2023-03-14T10:59:06;17.47;;;3.70;;
58412;SDS011;44209;52.952;6.790;2023-03-14T11:01:55;14.80;;;3.30;;
58412;SDS011;44209;52.952;6.790;2023-03-14T11:07:27;14.73;;;3.37;;
58412;SDS011;44209;52.952;6.790;2023-03-14T11:09:58;11.70;;;2.57;;
58412;SDS011;44209;52.952;6.790;2023-03-14T11:12:51;18.33;;;4.37;;
58412;SDS011;44209;52.952;6.790;2023-03-14T11:26:29;14.77;;;3.83;;
58412;SDS011;44209;52.952;6.790;2023-03-14T11:32:13;12.17;;;2.53;;
58412;SDS011;44209;52.952;6.790;2023-03-14T11:34:50;8.97;;;2.33;;
58412;SDS011;44209;52.952;6.790;2023-03-14T11:42:39;6.30;;;2.13;;
58412;SDS011;44209;52.952;6.790;2023-03-14T11:45:18;8.40;;;2.10;;
58412;SDS011;44209;52.952;6.790;2023-03-14T11:47:53;7.68;;;2.10;;
58412;SDS011;44209;52.952;6.790;2023-03-14T11:50:35;9.47;;;2.03;;
58412;SDS011;44209;52.952;6.790;2023-03-14T11:53:09;6.97;;;1.90;;
58412;SDS011;44209;52.952;6.790;2023-03-14T11:55:43;6.90;;;2.37;;
58412;SDS011;44209;52.952;6.790;2023-03-14T11:58:14;9.97;;;2.00;;
58412;SDS011;44209;52.952;6.790;2023-03-14T12:01:00;7.83;;;2.07;;
58412;SDS011;44209;52.952;6.790;2023-03-14T12:04:18;7.73;;;1.87;;
58412;SDS011;44209;52.952;6.790;2023-03-14T12:06:28;7.50;;;1.60;;
58412;SDS011;44209;52.952;6.790;2023-03-14T12:09:03;8.83;;;1.93;;
58412;SDS011;44209;52.952;6.790;2023-03-14T12:14:20;4.27;;;1.57;;
58412;SDS011;44209;52.952;6.790;2023-03-14T12:17:13;7.10;;;1.40;;
58412;SDS011;44209;52.952;6.790;2023-03-14T12:19:45;7.50;;;1.47;;
58412;SDS011;44209;52.952;6.790;2023-03-14T12:22:20;11.73;;;2.50;;
58412;SDS011;44209;52.952;6.790;2023-03-14T12:24:53;8.10;;;1.90;;
58412;SDS011;44209;52.952;6.790;2023-03-14T12:30:18;6.87;;;1.67;;
58412;SDS011;44209;52.952;6.790;2023-03-14T12:35:38;4.53;;;1.53;;
58412;SDS011;44209;52.952;6.790;2023-03-14T12:40:37;5.13;;;1.50;;
58412;SDS011;44209;52.952;6.790;2023-03-14T12:48:42;5.63;;;1.33;;
58412;SDS011;44209;52.952;6.790;2023-03-14T12:51:16;7.90;;;1.67;;
58412;SDS011;44209;52.952;6.790;2023-03-14T12:56:25;6.43;;;1.80;;
58412;SDS011;44209;52.952;6.790;2023-03-14T13:01:29;7.10;;;1.90;;
58412;SDS011;44209;52.952;6.790;2023-03-14T13:03:55;8.33;;;1.83;;
58412;SDS011;44209;52.952;6.790;2023-03-14T13:06:44;10.83;;;1.73;;
58412;SDS011;44209;52.952;6.790;2023-03-14T13:12:13;7.27;;;1.90;;
58412;SDS011;44209;52.952;6.790;2023-03-14T13:14:43;4.22;;;1.55;;
58412;SDS011;44209;52.952;6.790;2023-03-14T13:17:14;5.77;;;1.40;;
58412;SDS011;44209;52.952;6.790;2023-03-14T13:19:52;8.30;;;1.80;;
58412;SDS011;44209;52.952;6.790;2023-03-14T13:22:26;7.50;;;1.90;;
58412;SDS011;44209;52.952;6.790;2023-03-14T13:25:01;6.33;;;1.90;;
58412;SDS011;44209;52.952;6.790;2023-03-14T13:27:30;5.90;;;1.90;;
58412;SDS011;44209;52.952;6.790;2023-03-14T13:29:57;6.13;;;1.87;;
58412;SDS011;44209;52.952;6.790;2023-03-14T13:32:26;9.93;;;1.97;;
58412;SDS011;44209;52.952;6.790;2023-03-14T13:34:58;6.87;;;1.80;;
58412;SDS011;44209;52.952;6.790;2023-03-14T13:37:25;6.93;;;1.75;;
58412;SDS011;44209;52.952;6.790;2023-03-14T13:39:53;10.97;;;2.17;;
58412;SDS011;44209;52.952;6.790;2023-03-14T13:42:21;7.33;;;2.00;;
58412;SDS011;44209;52.952;6.790;2023-03-14T13:44:51;10.83;;;2.03;;
58412;SDS011;44209;52.952;6.790;2023-03-14T13:47:20;6.47;;;2.00;;
58412;SDS011;44209;52.952;6.790;2023-03-14T13:49:48;9.17;;;2.20;;
58412;SDS011;44209;52.952;6.790;2023-03-14T13:52:31;7.07;;;1.87;;
58412;SDS011;44209;52.952;6.790;2023-03-14T13:55:01;4.93;;;1.50;;
58412;SDS011;44209;52.952;6.790;2023-03-14T13:57:42;7.40;;;1.50;;
58412;SDS011;44209;52.952;6.790;2023-03-14T14:00:28;8.33;;;1.70;;
58412;SDS011;44209;52.952;6.790;2023-03-14T14:02:55;4.97;;;1.77;;
58412;SDS011;44209;52.952;6.790;2023-03-14T14:05:26;4.63;;;1.60;;
58412;SDS011;44209;52.952;6.790;2023-03-14T14:07:53;3.23;;;1.03;;
58412;SDS011;44209;52.952;6.790;2023-03-14T14:10:19;4.47;;;1.33;;
58412;SDS011;44209;52.952;6.790;2023-03-14T14:12:50;6.13;;;1.67;;
58412;SDS011;44209;52.952;6.790;2023-03-14T14:15:28;5.90;;;1.40;;
58412;SDS011;44209;52.952;6.790;2023-03-14T14:22:56;4.63;;;1.40;;
58412;SDS011;44209;52.952;6.790;2023-03-14T14:25:23;6.83;;;1.50;;
58412;SDS011;44209;52.952;6.790;2023-03-14T14:27:49;6.00;;;1.50;;
58412;SDS011;44209;52.952;6.790;2023-03-14T14:32:44;6.20;;;1.83;;
58412;SDS011;44209;52.952;6.790;2023-03-14T14:38:12;5.83;;;1.73;;
58412;SDS011;44209;52.952;6.790;2023-03-14T14:40:43;7.63;;;1.63;;
58412;SDS011;44209;52.952;6.790;2023-03-14T14:43:12;7.30;;;1.70;;
58412;SDS011;44209;52.952;6.790;2023-03-14T14:45:43;5.80;;;1.20;;
58412;SDS011;44209;52.952;6.790;2023-03-14T14:48:13;6.40;;;1.80;;
58412;SDS011;44209;52.952;6.790;2023-03-14T14:50:49;7.00;;;1.57;;
58412;SDS011;44209;52.952;6.790;2023-03-14T14:56:13;6.37;;;1.47;;
58412;SDS011;44209;52.952;6.790;2023-03-14T14:58:44;6.50;;;1.48;;
58412;SDS011;44209;52.952;6.790;2023-03-14T15:01:12;7.50;;;1.67;;
58412;SDS011;44209;52.952;6.790;2023-03-14T15:03:45;7.33;;;1.60;;
58412;SDS011;44209;52.952;6.790;2023-03-14T15:06:16;5.13;;;1.60;;
58412;SDS011;44209;52.952;6.790;2023-03-14T15:08:43;7.53;;;1.80;;
58412;SDS011;44209;52.952;6.790;2023-03-14T15:11:21;9.53;;;1.93;;
58412;SDS011;44209;52.952;6.790;2023-03-14T15:13:49;9.03;;;1.97;;
58412;SDS011;44209;52.952;6.790;2023-03-14T15:16:17;8.10;;;2.00;;
58412;SDS011;44209;52.952;6.790;2023-03-14T15:18:46;7.30;;;1.90;;
58412;SDS011;44209;52.952;6.790;2023-03-14T15:21:21;7.17;;;1.73;;
58412;SDS011;44209;52.952;6.790;2023-03-14T15:23:48;8.60;;;2.23;;
58412;SDS011;44209;52.952;6.790;2023-03-14T15:26:15;6.97;;;1.77;;
58412;SDS011;44209;52.952;6.790;2023-03-14T15:28:51;11.10;;;2.10;;
58412;SDS011;44209;52.952;6.790;2023-03-14T15:31:18;10.67;;;1.90;;
58412;SDS011;44209;52.952;6.790;2023-03-14T15:33:46;8.83;;;2.20;;
58412;SDS011;44209;52.952;6.790;2023-03-14T15:38:49;8.53;;;2.03;;
58412;SDS011;44209;52.952;6.790;2023-03-14T15:41:16;11.97;;;1.83;;
58412;SDS011;44209;52.952;6.790;2023-03-14T15:43:42;6.43;;;1.80;;
58412;SDS011;44209;52.952;6.790;2023-03-14T15:46:08;5.57;;;1.80;;
58412;SDS011;44209;52.952;6.790;2023-03-14T15:48:35;8.87;;;1.97;;
58412;SDS011;44209;52.952;6.790;2023-03-14T15:51:01;7.57;;;1.70;;
58412;SDS011;44209;52.952;6.790;2023-03-14T15:53:27;6.53;;;1.40;;
58412;SDS011;44209;52.952;6.790;2023-03-14T15:55:52;5.37;;;1.53;;
58412;SDS011;44209;52.952;6.790;2023-03-14T15:58:19;7.47;;;1.57;;
58412;SDS011;44209;52.952;6.790;2023-03-14T16:00:45;10.03;;;1.40;;
58412;SDS011;44209;52.952;6.790;2023-03-14T16:03:11;8.70;;;2.07;;